Weather History for Murray, KY

Change the Weather History Date:

Wednesday, December 28, 2011

  Actual Average (KPAH) Record (KPAH)
Temperature  
Mean Temperature 36 °F 35 °F  
Max Temperature 44 °F 44 °F 69 °F (1984)
Min Temperature 28 °F 27 °F 10 °F (1950)
Degree Days  
Heating Degree Days 29 30  
Month to date heating degree days 764  
Since 1 July heating degree days 1541  
Cooling Degree Days 0 0  
Month to date cooling degree days 0  
Year to date cooling degree days 1542  
Moisture  
Dew Point 30 °F    
Average Humidity 79    
Maximum Humidity 100    
Minimum Humidity 53    
Precipitation  
Precipitation 0.00 in 0.14 in 1.52 in (1942)
Month to date precipitation 4.20  
Year to date precipitation 48.69  
Snow  
Snow 0.00 in 0.00 in 2.20 in (1988)
Month to date snowfall 1.9  
Since 1 July snowfall 2.0  
Snow Depth -    
Sea Level Pressure  
Sea Level Pressure 30.11 in    
Wind  
Wind Speed 5 mph (WSW)    
Max Wind Speed 12 mph    
Max Gust Speed -    
Visibility 10 miles    
Events      
T = Trace of Precipitation, MM = Missing Value Source: NWS Daily Summary

Daily Weather History Graph

Daily Weather History Graph

Search for Another Location

Airport:

Trip Planner

Search our weather history database for the weather conditions in past years. The results will help you decide how hot, cold, wet, or windy it might be!

Date:

Astronomy

Dec. 28, 2011 Rise Set
Actual Time 7:04 AM CST 4:45 PM CST
Civil Twilight 6:36 AM CST 5:14 PM CST
Nautical Twilight 6:03 AM CST 5:46 PM CST
Astronomical Twilight 5:32 AM CST 6:17 PM CST
Moon 9:37 AM CST (12/28) 9:14 PM CST (12/28)
Length of Visible Light 10h 38m
Length of Day
9h 40m
Waxing Crescent, 18% of the Moon is Illuminated
Dec 28
Waxing Crescent
Jan 1
First Quarter
Jan 9
Full
Jan 16
Last Quarter
Jan 23
New

Hourly Weather History & Observations

Time (CST) Temp. Windchill Dew Point Humidity Pressure Visibility Wind Dir Wind Speed Gust Speed Precip Events Conditions
12:15 AM 35.6 °F 30.7 °F 28.4 °F 75% 30.08 in 10.0 mi West 5.8 mph - N/A   Clear
12:35 AM 33.8 °F 29.6 °F 28.4 °F 81% 30.07 in 10.0 mi NW 4.6 mph - N/A   Clear
12:55 AM 32.0 °F 26.4 °F 28.4 °F 87% 30.08 in 10.0 mi WNW 5.8 mph - N/A   Clear
1:15 AM 32.0 °F 25.6 °F 28.4 °F 87% 30.08 in 10.0 mi WNW 6.9 mph - N/A   Clear
1:35 AM 32.0 °F 27.5 °F 28.4 °F 87% 30.09 in 10.0 mi West 4.6 mph - N/A   Clear
1:55 AM 32.0 °F 26.4 °F 28.4 °F 87% 30.10 in 10.0 mi WNW 5.8 mph - N/A   Clear
2:15 AM 32.0 °F 26.4 °F 28.4 °F 87% 30.10 in 10.0 mi WNW 5.8 mph - N/A   Clear
2:35 AM 32.0 °F 26.4 °F 28.4 °F 87% 30.11 in 10.0 mi NW 5.8 mph - N/A   Clear
2:55 AM 32.0 °F 26.4 °F 28.4 °F 87% 30.12 in 10.0 mi WNW 5.8 mph - N/A   Clear
3:15 AM 32.0 °F 27.5 °F 28.4 °F 87% 30.12 in 10.0 mi WNW 4.6 mph - N/A   Clear
3:35 AM 32.0 °F - 26.6 °F 80% 30.12 in 10.0 mi Calm Calm - N/A   Clear
3:55 AM 32.0 °F 28.7 °F 28.4 °F 87% 30.12 in 10.0 mi WSW 3.5 mph - N/A   Clear
4:15 AM 32.0 °F 27.5 °F 28.4 °F 87% 30.13 in 10.0 mi West 4.6 mph - N/A   Clear
4:35 AM 32.0 °F - 28.4 °F 87% 30.11 in 10.0 mi Calm Calm - N/A   Clear
4:55 AM 32.0 °F - 28.4 °F 87% 30.12 in 10.0 mi Calm Calm - N/A   Clear
5:15 AM 28.4 °F - 28.4 °F 100% 30.11 in 10.0 mi Calm Calm - N/A   Clear
5:35 AM 28.4 °F - 28.4 °F 100% 30.12 in 10.0 mi Calm Calm - N/A   Clear
5:55 AM 28.4 °F - 28.4 °F 100% 30.12 in 10.0 mi Calm Calm - N/A   Clear
6:15 AM 28.4 °F - 28.4 °F 100% 30.12 in 10.0 mi Calm Calm - N/A   Clear
6:35 AM 28.4 °F - 28.4 °F 100% 30.12 in 10.0 mi Calm Calm - N/A   Clear
6:55 AM 30.2 °F - 28.4 °F 93% 30.13 in 10.0 mi Calm Calm - N/A   Clear
7:15 AM 30.2 °F 26.7 °F 28.4 °F 93% 30.13 in 10.0 mi WSW 3.5 mph - N/A   Clear
7:35 AM 30.2 °F - 28.4 °F 93% 30.13 in 10.0 mi Calm Calm - N/A   Clear
7:55 AM 32.0 °F 28.7 °F 28.4 °F 87% 30.13 in 10.0 mi SSW 3.5 mph - N/A   Clear
8:15 AM 32.0 °F - 30.2 °F 93% 30.14 in 10.0 mi Calm Calm - N/A   Clear
8:35 AM 32.0 °F - 30.2 °F 93% 30.14 in 10.0 mi Calm Calm - N/A   Clear
8:55 AM 33.8 °F - 32.0 °F 93% 30.15 in 10.0 mi Calm Calm - N/A   Clear
9:15 AM 35.6 °F 31.7 °F 32.0 °F 87% 30.15 in 10.0 mi South 4.6 mph - N/A   Clear
9:35 AM 37.4 °F 33.8 °F 30.2 °F 75% 30.16 in 10.0 mi South 4.6 mph - N/A   Clear
9:55 AM 37.4 °F 34.9 °F 30.2 °F 75% 30.16 in 10.0 mi South 3.5 mph - N/A   Clear
10:15 AM 37.4 °F 32.8 °F 32.0 °F 81% 30.15 in 10.0 mi SSE 5.8 mph - N/A   Clear
10:35 AM 39.2 °F 35.9 °F 32.0 °F 75% 30.15 in 10.0 mi SSW 4.6 mph - N/A   Clear
10:55 AM 41.0 °F 35.8 °F 32.0 °F 70% 30.14 in 10.0 mi SW 8.1 mph - N/A   Clear
11:15 AM 41.0 °F 35.8 °F 32.0 °F 70% 30.13 in 10.0 mi WSW 8.1 mph - N/A   Clear
11:35 AM 41.0 °F 35.2 °F 32.0 °F 70% 30.13 in 10.0 mi SW 9.2 mph - N/A   Clear
11:55 AM 41.0 °F 35.2 °F 30.2 °F 65% 30.12 in 10.0 mi WSW 9.2 mph - N/A   Clear
12:15 PM 41.0 °F 34.7 °F 32.0 °F 70% 30.11 in 10.0 mi SW 10.4 mph - N/A   Clear
12:35 PM 44.6 °F 39.2 °F 32.0 °F 61% 30.10 in 10.0 mi West 10.4 mph - N/A   Clear
12:55 PM 44.6 °F 40.2 °F 30.2 °F 57% 30.09 in 10.0 mi SW 8.1 mph - N/A   Clear
1:15 PM 44.6 °F 39.2 °F 28.4 °F 53% 30.09 in 10.0 mi WSW 10.4 mph - N/A   Clear
1:35 PM 44.6 °F 38.8 °F 32.0 °F 61% 30.09 in 10.0 mi SW 11.5 mph - N/A   Clear
1:55 PM 44.6 °F 39.7 °F 30.2 °F 57% 30.09 in 10.0 mi WSW 9.2 mph - N/A   Clear
2:15 PM 44.6 °F 41.4 °F 30.2 °F 57% 30.08 in 10.0 mi WSW 5.8 mph - N/A   Clear
2:35 PM 44.6 °F 40.2 °F 32.0 °F 61% 30.08 in 10.0 mi SW 8.1 mph - N/A   Clear
2:55 PM 44.6 °F 40.2 °F 32.0 °F 61% 30.08 in 10.0 mi SW 8.1 mph - N/A   Clear
3:15 PM 44.6 °F 42.2 °F 32.0 °F 61% 30.09 in 10.0 mi West 4.6 mph - N/A   Clear
3:35 PM 44.6 °F 40.7 °F 32.0 °F 61% 30.09 in 10.0 mi SW 6.9 mph - N/A   Clear
3:55 PM 44.6 °F 41.4 °F 32.0 °F 61% 30.09 in 10.0 mi WSW 5.8 mph - N/A   Clear
4:15 PM 42.8 °F 40.1 °F 32.0 °F 66% 30.09 in 10.0 mi WSW 4.6 mph - N/A   Clear
4:35 PM 41.0 °F 39.0 °F 32.0 °F 70% 30.09 in 10.0 mi SW 3.5 mph - N/A   Clear
4:55 PM 39.2 °F - 32.0 °F 75% 30.08 in 10.0 mi Calm Calm - N/A   Clear
5:15 PM 35.6 °F 32.8 °F 30.2 °F 81% 30.08 in 10.0 mi South 3.5 mph - N/A   Clear
5:35 PM 37.4 °F 34.9 °F 30.2 °F 75% 30.08 in 10.0 mi South 3.5 mph - N/A   Clear
5:55 PM 33.8 °F 30.8 °F 30.2 °F 87% 30.08 in 10.0 mi SSE 3.5 mph - N/A   Clear
6:15 PM 33.8 °F 30.8 °F 30.2 °F 87% 30.08 in 10.0 mi South 3.5 mph - N/A   Clear
6:35 PM 35.6 °F 32.8 °F 30.2 °F 81% 30.09 in 10.0 mi South 3.5 mph - N/A   Clear
6:55 PM 32.0 °F 28.7 °F 28.4 °F 87% 30.09 in 10.0 mi SSE 3.5 mph - N/A   Clear
7:15 PM 32.0 °F 26.4 °F 28.4 °F 87% 30.08 in 10.0 mi South 5.8 mph - N/A   Clear
7:35 PM 32.0 °F 27.5 °F 28.4 °F 87% 30.08 in 10.0 mi South 4.6 mph - N/A   Clear
7:55 PM 32.0 °F 26.4 °F 28.4 °F 87% 30.07 in 10.0 mi South 5.8 mph - N/A   Clear
8:15 PM 32.0 °F 27.5 °F 28.4 °F 87% 30.07 in 10.0 mi South 4.6 mph - N/A   Clear
8:55 PM 35.6 °F 30.7 °F 28.4 °F 75% 30.06 in 10.0 mi SSE 5.8 mph - N/A   Clear
9:15 PM 35.6 °F 31.7 °F 28.4 °F 75% 30.06 in 10.0 mi SSE 4.6 mph - N/A   Clear
9:35 PM 35.6 °F 32.8 °F 28.4 °F 75% 30.05 in 10.0 mi South 3.5 mph - N/A   Clear
9:55 PM 35.6 °F 32.8 °F 28.4 °F 75% 30.05 in 10.0 mi South 3.5 mph - N/A   Clear
10:15 PM 35.6 °F 31.7 °F 28.4 °F 75% 30.04 in 10.0 mi South 4.6 mph - N/A   Clear
10:35 PM 35.6 °F 31.7 °F 28.4 °F 75% 30.04 in 10.0 mi SSW 4.6 mph - N/A   Clear
10:55 PM 33.8 °F 28.6 °F 28.4 °F 81% 30.03 in 10.0 mi South 5.8 mph - N/A   Clear
11:15 PM 33.8 °F 28.6 °F 28.4 °F 81% 30.02 in 10.0 mi South 5.8 mph - N/A   Clear
11:35 PM 35.6 °F 29.9 °F 28.4 °F 75% 30.01 in 10.0 mi South 6.9 mph - N/A   Clear
11:55 PM 35.6 °F 29.2 °F 28.4 °F 75% 30.01 in 10.0 mi SSW 8.1 mph - N/A   Clear